LGSK Airport Information

Runway Information
Runway 01 Length 5341 ft width 98 ft Elevation 9 ft Threshold 190 ft Heading 19
Runway 19 Length 5341 ft Width 98 ft Elevation 54 ft Threshold N/A Heading 199
Airport Frequencies
Type A/G Name SKIATHOS R Frequency 563.7 MHZ
Type APP Name SKIATHOS A Frequency 126.05 MHZ
Type TWR Name SKIATHOS T Frequency 126.05 MHZ
Airport Navaids
Type NDB Name Skiathos Frequency 326 KHZ
Airport Weather Information & NOTAM
ADDS - METARS form results

(0234 UTC 12 August 2022)
Data provider http://aviationweather.gov/metar/data/
 
METAR text: LGSK 120220Z 01005KT 9999 FEW018CB 26/21 Q1012
Conditions at: LGSK (SKIATHOS ISLAND , GR) observed 0220 UTC 12 August 2022
Temperature: 26.0°C (79°F)
Dewpoint: 21.0°C (70°F) [RH = 74%]
Pressure (altimeter): 29.88 inches Hg (1012.0 mb)
Winds: from the N (10 degrees) at 6 MPH (5 knots; 2.6 m/s)
Visibility: 6 or more miles (10+ km)
Ceiling: at least 12,000 feet AGL
Clouds: few clouds at 1800 feet AGL
Weather: no significant weather observed at this time

METAR text: LGSK 120150Z 01006KT 9999 FEW018 26/21 Q1012
Conditions at: LGSK (SKIATHOS ISLAND , GR) observed 0150 UTC 12 August 2022
Temperature: 26.0°C (79°F)
Dewpoint: 21.0°C (70°F) [RH = 74%]
Pressure (altimeter): 29.88 inches Hg (1012.0 mb)
Winds: from the N (10 degrees) at 7 MPH (6 knots; 3.1 m/s)
Visibility: 6 or more miles (10+ km)
Ceiling: at least 12,000 feet AGL
Clouds: few clouds at 1800 feet AGL
Weather: no significant weather observed at this time

Forecast for: LGSK (SKIATHOS ISLAND , GR)
Text: TAF LGSK 120200Z 1203/1212 VRB05KT 9999 FEW018
Forecast period: 0300 to 1200 UTC 12 August 2022
Forecast type: FROM: standard forecast or significant change
Winds: variable direction winds at 6 MPH (5 knots; 2.6 m/s)
Visibility: 6 or more miles (10+ km)
Ceiling: at least 12,000 feet AGL
Clouds: few clouds at 1800 feet AGL
Weather: no significant weather forecast for this period
Text: PROB40
Forecast period: 0300 to 1200 UTC 12 August 2022
Forecast type: TEMPORARY: The following changes expected for less than half the time period
Visibility: missing
Ceiling: at least 12,000 feet AGL
Clouds: few clouds at 1800 feet AGL
scattered clouds at 2000 feet AGL
Weather: no significant weather forecast for this period
Text: TEMPO 1203/1212 FEW018TCU SCT020
Forecast period: 0300 to 1200 UTC 12 August 2022
Forecast type: TEMPORARY: The following changes expected for less than half the time period
Visibility: 3 miles (5 km)
Ceiling: 2000 feet AGL
Clouds: few clouds at 1800 feet AGL
broken clouds at 2000 feet AGL
Weather: SHRA  (rain showers)